Flight Track Log - Related Links

Times and Time Zones

All times are in EDT time to prevent confusion due to time zone crossing. See the SWA1046 flight status page for this flight to view local times or setup timezone preferences in your user account.

Time Position Orientation Groundspeed Altitude Reporting Facility
EDT Latitude Longitude Course Direction KTS MPH feet Rate Location/Type
Wed 04:42:45 PM 32.8667 -96.8667 351° North 157 181 1,900  Level Dallas TRACON
Wed 04:43:57 PM 32.9167 -96.9333 312° West 204 235 4,600 2,818 Climbing Dallas TRACON
Wed 04:44:57 PM 32.9500 -96.9833 308° West 215 247 8,100 3,158 Climbing Dallas TRACON
Wed 04:45:51 PM 33.0000 -97.0167 331° Northwest 257 296 10,600 2,621 Climbing Dallas TRACON
Wed 04:48:00 PM 33.2691 -96.9405 351° North  Level FlightAware
Wed 04:48:07 PM 33.1711 -97.0808 343° North 331 381 16,400  Level Fort Center
Wed 04:49:07 PM 33.2839 -97.0928 355° North 365 420 19,200 2,750 Climbing Fort Center
Wed 04:50:07 PM 33.3944 -97.1050 355° North 390 449 21,900 2,600 Climbing Fort Center
Wed 04:51:07 PM 33.5114 -97.1019 North 401 461 24,400 2,550 Climbing Fort Center
Wed 04:52:07 PM 33.6261 -97.0892 North 409 471 27,000 1,300 Climbing Fort Center
Wed 04:53:07 PM 33.7283 -97.0764 North 409 471 27,000 -450 Level Fort Center
Wed 04:54:07 PM 33.8369 -97.0608 North 403 464 26,100 -950 Descending Fort Center
Wed 04:55:07 PM 33.9433 -97.0506 North 393 452 25,100 -1,050 Descending Fort Center
Wed 04:56:07 PM 34.0475 -97.0350 North 377 434 24,000 -1,000 Descending Fort Center
Wed 04:57:07 PM 34.1414 -97.0244 North 352 405 23,100 -950 Descending Fort Center
Wed 04:58:07 PM 34.2417 -97.0117 North 347 399 22,100 -550 Descending Fort Center
Wed 04:59:07 PM 34.3397 -96.9986 North 347 399 22,000 -550 Descending Fort Center
Wed 05:00:07 PM 34.4333 -96.9931 North 347 399 21,000 -1,700 Descending Fort Center
Wed 05:01:07 PM 34.5172 -97.0456 333° Northwest 330 380 18,600 -1,850 Descending Fort Center
Wed 05:02:07 PM 34.5922 -97.0956 331° Northwest 319 367 17,300 -1,700 Descending Fort Center
Wed 05:03:07 PM 34.6675 -97.1483 330° Northwest 313 360 15,200 -1,909 Descending Fort Center
Wed 05:03:35 PM 34.7136 -97.1736 336° Northwest 305 351 14,500 -1,400 Descending Fort Center
Wed 05:04:07 PM 34.7406 -97.1961 326° Northwest 307 353 13,800 -1,714 Descending Fort Center
Wed 05:04:24 PM 34.7719 -97.2164 332° Northwest 289 333 13,100 -1,600 Descending Fort Center
Wed 05:05:07 PM 34.8094 -97.2417 331° Northwest 296 341 12,200 -1,522 Descending Fort Center
Wed 05:05:31 PM 34.8450 -97.2642 333° Northwest 281 323 11,400 -1,500 Descending Fort Center
Wed 05:06:07 PM 34.8764 -97.2894 327° Northwest 290 334 10,700 -1,475 Descending Fort Center
Wed 05:06:32 PM 34.9119 -97.3097 335° Northwest 275 316 9,900 -1,500 Descending Fort Center
Wed 05:07:07 PM 34.9453 -97.3300 333° Northwest 285 328 9,200 -1,527 Descending Fort Center
Wed 05:07:27 PM 34.9767 -97.3478 335° Northwest 271 312 8,500 -1,500 Descending Fort Center
Wed 05:08:07 PM 35.0142 -97.3706 334° Northwest 280 322 7,700 -1,527 Descending Fort Center
Wed 05:08:22 PM 35.0369 -97.3856 332° Northwest 271 312 7,100 -1,500 Descending Fort Center
Wed 05:09:07 PM 35.0808 -97.4161 330° Northwest 274 315 6,200 -1,400 Descending Fort Center
Wed 05:09:22 PM 35.1017 -97.4339 325° Northwest 266 306 5,700 -1,300 Descending Fort Center
Wed 05:10:07 PM 35.1372 -97.4669 323° Northwest 263 303 4,900 -1,279 Descending Fort Center
Wed 05:10:23 PM 35.1600 -97.4847 327° Northwest 258 297 4,400 -900 Descending Fort Center
Wed 05:11:07 PM 35.1956 -97.5178 323° Northwest 263 303 4,000 -393 Descending Fort Center
Wed 05:11:24 PM 35.2183 -97.5406 321° Northwest 248 285 4,000 -400 Level Fort Center
Wed 05:12:07 PM 35.2497 -97.5636 329° Northwest 252 290 3,600 -537 Descending Fort Center
Wed 05:12:31 PM 35.2725 -97.5864 321° Northwest 209 241 3,400 -600 Descending Fort Center
Wed 05:13:07 PM 35.2933 -97.6017 329° Northwest 225 259 3,000 -813 Descending Fort Center
Wed 05:14:07 PM 35.3331 -97.6069 354° North 188 216 2,100 -800 Descending Fort Center
Wed 05:15:07 PM 35.3728 -97.6069 360° North 146 168 1,400 -450 Descending Fort Center
Wed 05:16:07 PM 35.4122 -97.6197 345° North 146 168 1,200 -200 Descending Fort Center
Wed 05:20:00 PM 35.3931 -97.6008 141° Southeast  Level Estimated

Login

Don't have an account? Register now (free) for customized features, flight alerts, and more!